ASIAQ
Weather Now
GREENLAND SURVEY
Sorting:
| Location |
Updated [WGT/WGST] |
Temperature [°C] |
Wind [m/s] |
Air pressure [hPa] |
Relative humidity [%] |
Precipitation [mm] |
| Present | Wind chill | Speed | Max |
| Qaanaaq | 02.05 21:00 | -8,5 | -12,5 | 2,1 ⇘ | 2,6 | 1024 | 57 | n/a |
| Kitsissut | 02.05 21:00 | -8,9 | -16,1 | 5,1 ⇘ | 6,2 | 1026 | 79 | n/a |
| Kitsissorsuit | 02.05 21:00 | -11,7 | -20,1 | 5,7 ⇘ | 6,7 | 1022 | 85 | n/a |
| Upernavik | 02.05 21:00 | -11,1 | -18,9 | 5,1 ⇘ | 6,6 | 1010 | 76 | 0,0 |
| Qaarsut | 02.05 21:00 | n/a | n/a | 9,8 ⇘ | n/a | 1015 | n/a | n/a |
| Nuussuaq | 02.05 21:00 | -8,9 | -17,5 | 7,2 ⇘ | 9,8 | 1025 | 78 | n/a |
| Qeqertarsuaq | 02.05 20:00 | -4,3 | -10,0 | 4,7 ⇒ | 7,2 | 1024 | 62 | 2,2 |
| Ilulissat | 02.05 21:00 | n/a | n/a | 2,8 ⇗ | 3,9 | 1022 | n/a | n/a |
| Qasigiannguit | 02.05 20:00 | -3,9 | -7,4 | 2,4 ⇒ | 5,5 | 1023 | 69 | 0,0 |
| Aasiaat | 02.05 21:00 | -6,0 | -11,6 | 3,9 ⇒ | 8,1 | 1021 | 71 | 0,0 |
| Kangerlussuaq | 02.05 21:00 | -1,0 | -4,5 | 2,8 ⇗ | 3,3 | 1018 | 92 | n/a |
| Sisimiut | 02.05 21:00 | -0,1 | -4,4 | 4,1 ⇓ | n/a | 1024 | 65 | 0,1 |
| Maniitsoq | 02.05 21:00 | n/a | n/a | 4,7 ⇐ | 6,2 | 1020 | n/a | n/a |
| Sioralik | 02.05 05:00 | -1,4 | n/a | n/a | n/a | 1023 | 99 | n/a |
| Niaqornaa | n/a | n/a | n/a | n/a | n/a | n/a | n/a | n/a |
| Qeqertannguaq | 02.05 21:00 | 1,8 | -1,2 | 2,9 ⇙ | 4,1 | n/a | 88 | n/a |
| Kapisillit | 02.05 20:00 | 1,8 | -2,9 | 5,5 ⇐ | 7,7 | 1014 | 90 | 0,0 |
| Kuanninnguit | n/a | n/a | n/a | n/a | n/a | n/a | n/a | n/a |
| Nuuk City | 02.05 21:00 | 1,9 | -4,7 | 10,7 ⇖ | 14,3 | n/a | 91 | n/a |
| Ukiiviit | 02.05 21:00 | 1,7 | -4,2 | 8,2 ⇑ | 11,8 | 1023 | 93 | n/a |
| Paamiut | 02.05 21:00 | n/a | n/a | 0,0 ⇓ | 0,0 | 1021 | n/a | n/a |
| Narsarsuaq | 02.05 21:00 | 3,0 | -0,3 | 3,6 ⇗ | n/a | 1022 | 91 | n/a |
| Narsaq | 02.05 20:00 | 2,4 | n/a | 1,1 ⇘ | 2,3 | 1023 | 94 | 0,0 |
| Nunarsuit | 02.05 21:00 | 1,1 | -2,7 | 3,6 ⇖ | 5,1 | 1022 | 97 | n/a |
| Upernaviarsuk | 02.05 21:00 | 1,4 | -0,1 | 1,5 ⇑ | 3,0 | 1025 | 95 | n/a |
| Qaqortoq | 02.05 21:00 | 1,3 | n/a | 1,3 ⇑ | 3,4 | 1019 | 91 | 0,0 |
| Angisoq | 02.05 21:00 | 2,2 | -3,9 | 9,3 ⇘ | 11,3 | 1023 | 86 | n/a |
| Prins Christian Sund | 02.05 21:00 | 7,9 | 3,2 | 10,8 ⇗ | 17,0 | 1007 | 44 | n/a |
| Nanortalik | 02.05 20:00 | 4,3 | 1,2 | 3,7 ⇘ | 7,7 | 1025 | 76 | n/a |
| Ikermiuarsuk | 02.05 21:00 | 0,2 | -3,3 | 3,1 ⇓ | 4,1 | 1013 | 86 | n/a |
| Ikermit | 02.05 21:00 | 4,0 | 0,9 | 3,6 ⇗ | 4,6 | 1007 | 48 | n/a |
| Kulusuk | 02.05 21:00 | 5,8 | 3,7 | 2,7 ⇙ | 5,6 | 1010 | 32 | n/a |
| Tasiilaq | 02.05 21:00 | 5,6 | 3,2 | 3,0 ⇘ | 9,4 | 1009 | 35 | 0,0 |
| Aputiteeq | 02.05 21:00 | 0,5 | -4,7 | 5,7 ⇓ | 11,8 | 1013 | 45 | n/a |
| Ittoqqortoormiit | 02.05 21:00 | -6,5 | -11,2 | 2,9 ⇙ | 5,4 | 1005 | 49 | n/a |
| Nerlerit Inaat | n/a | n/a | n/a | n/a | n/a | n/a | n/a | n/a |
| Daneborg | 02.05 21:00 | -6,0 | -10,3 | 3,0 ⇓ | 3,0 | 1011 | 51 | n/a |
| Zackenberg | 02.05 12:00 | n/a | n/a | 2,5 ⇐ | 4,0 | n/a | n/a | n/a |
| Danmarkshavn | 02.05 21:00 | -6,4 | n/a | n/a | 15,0 | 1010 | 73 | n/a |
| Henrik Krøyer Holme | 02.05 21:00 | -10,2 | -25,1 | 26,0 ⇓ | 31,0 | 1008 | 71 | n/a |
| Station Nord | 02.05 21:00 | -12,2 | -23,3 | 10,0 ⇓ | 12,0 | 1012 | 89 | n/a |
| Kap Morris Jesup | 02.05 21:00 | -12,1 | -24,6 | 14,0 ⇒ | 18,0 | 1021 | 80 | n/a |
Advanced version ⤻
Data source - Operated by - Disclaimer ▼